sensor_id;sensor_type;location;lat;lon;timestamp;P1;durP1;ratioP1;P2;durP2;ratioP2
27802;SDS011;15182;48.174;11.562;2023-08-06T00:01:43;3.20;;;3.10;;
27802;SDS011;15182;48.174;11.562;2023-08-06T00:04:10;3.15;;;3.05;;
27802;SDS011;15182;48.174;11.562;2023-08-06T00:06:38;2.95;;;2.85;;
27802;SDS011;15182;48.174;11.562;2023-08-06T00:09:06;3.05;;;2.95;;
27802;SDS011;15182;48.174;11.562;2023-08-06T00:11:34;2.92;;;2.90;;
27802;SDS011;15182;48.174;11.562;2023-08-06T00:14:03;3.33;;;3.22;;
27802;SDS011;15182;48.174;11.562;2023-08-06T00:16:31;2.90;;;2.90;;
27802;SDS011;15182;48.174;11.562;2023-08-06T00:18:58;2.60;;;2.60;;
27802;SDS011;15182;48.174;11.562;2023-08-06T00:21:26;3.30;;;3.22;;
27802;SDS011;15182;48.174;11.562;2023-08-06T00:23:54;3.40;;;3.28;;
27802;SDS011;15182;48.174;11.562;2023-08-06T00:26:22;4.93;;;3.58;;
27802;SDS011;15182;48.174;11.562;2023-08-06T00:28:50;3.47;;;3.28;;
27802;SDS011;15182;48.174;11.562;2023-08-06T00:31:19;3.45;;;3.35;;
27802;SDS011;15182;48.174;11.562;2023-08-06T00:33:47;3.83;;;3.63;;
27802;SDS011;15182;48.174;11.562;2023-08-06T00:36:15;3.30;;;3.00;;
27802;SDS011;15182;48.174;11.562;2023-08-06T00:38:43;3.15;;;3.08;;
27802;SDS011;15182;48.174;11.562;2023-08-06T00:41:10;2.90;;;2.80;;
27802;SDS011;15182;48.174;11.562;2023-08-06T00:43:38;2.78;;;2.78;;
27802;SDS011;15182;48.174;11.562;2023-08-06T00:46:06;2.80;;;2.70;;
27802;SDS011;15182;48.174;11.562;2023-08-06T00:48:35;2.95;;;2.80;;
27802;SDS011;15182;48.174;11.562;2023-08-06T00:51:03;2.65;;;2.55;;
27802;SDS011;15182;48.174;11.562;2023-08-06T00:53:31;2.47;;;2.33;;
27802;SDS011;15182;48.174;11.562;2023-08-06T00:55:59;2.67;;;2.58;;
27802;SDS011;15182;48.174;11.562;2023-08-06T00:58:28;2.67;;;2.67;;
27802;SDS011;15182;48.174;11.562;2023-08-06T01:00:56;2.55;;;2.55;;
27802;SDS011;15182;48.174;11.562;2023-08-06T01:03:24;2.90;;;2.80;;
27802;SDS011;15182;48.174;11.562;2023-08-06T01:05:53;2.85;;;2.85;;
27802;SDS011;15182;48.174;11.562;2023-08-06T01:08:35;2.53;;;2.53;;
27802;SDS011;15182;48.174;11.562;2023-08-06T01:11:19;2.75;;;2.55;;
27802;SDS011;15182;48.174;11.562;2023-08-06T01:14:05;3.05;;;2.80;;
27802;SDS011;15182;48.174;11.562;2023-08-06T01:16:40;2.88;;;2.88;;
27802;SDS011;15182;48.174;11.562;2023-08-06T01:19:15;3.03;;;2.92;;
27802;SDS011;15182;48.174;11.562;2023-08-06T01:21:45;2.80;;;2.80;;
27802;SDS011;15182;48.174;11.562;2023-08-06T01:24:13;2.80;;;2.80;;
27802;SDS011;15182;48.174;11.562;2023-08-06T01:26:42;2.47;;;2.47;;
27802;SDS011;15182;48.174;11.562;2023-08-06T01:29:17;3.92;;;2.42;;
27802;SDS011;15182;48.174;11.562;2023-08-06T01:31:51;2.85;;;2.83;;
27802;SDS011;15182;48.174;11.562;2023-08-06T01:34:21;2.83;;;2.67;;
27802;SDS011;15182;48.174;11.562;2023-08-06T01:36:52;2.80;;;2.70;;
27802;SDS011;15182;48.174;11.562;2023-08-06T01:39:21;3.53;;;3.35;;
27802;SDS011;15182;48.174;11.562;2023-08-06T01:41:49;4.00;;;3.60;;
27802;SDS011;15182;48.174;11.562;2023-08-06T01:44:17;3.13;;;3.08;;
27802;SDS011;15182;48.174;11.562;2023-08-06T01:46:45;3.15;;;3.05;;
27802;SDS011;15182;48.174;11.562;2023-08-06T01:49:13;3.20;;;3.10;;
27802;SDS011;15182;48.174;11.562;2023-08-06T01:51:41;3.33;;;2.97;;
27802;SDS011;15182;48.174;11.562;2023-08-06T01:54:10;3.35;;;3.25;;
27802;SDS011;15182;48.174;11.562;2023-08-06T01:56:38;3.17;;;3.07;;
27802;SDS011;15182;48.174;11.562;2023-08-06T01:59:05;3.45;;;3.35;;
27802;SDS011;15182;48.174;11.562;2023-08-06T02:01:33;2.95;;;2.85;;
27802;SDS011;15182;48.174;11.562;2023-08-06T02:04:01;2.97;;;2.87;;
27802;SDS011;15182;48.174;11.562;2023-08-06T02:06:29;3.10;;;3.00;;
27802;SDS011;15182;48.174;11.562;2023-08-06T02:08:57;3.03;;;3.03;;
27802;SDS011;15182;48.174;11.562;2023-08-06T02:11:26;3.17;;;2.97;;
27802;SDS011;15182;48.174;11.562;2023-08-06T02:13:54;3.30;;;3.10;;
27802;SDS011;15182;48.174;11.562;2023-08-06T02:16:21;2.85;;;2.85;;
27802;SDS011;15182;48.174;11.562;2023-08-06T02:18:49;4.70;;;3.23;;
27802;SDS011;15182;48.174;11.562;2023-08-06T02:21:17;2.78;;;2.78;;
27802;SDS011;15182;48.174;11.562;2023-08-06T02:23:45;2.60;;;2.60;;
27802;SDS011;15182;48.174;11.562;2023-08-06T02:26:12;3.10;;;3.03;;
27802;SDS011;15182;48.174;11.562;2023-08-06T02:28:42;4.03;;;2.80;;
27802;SDS011;15182;48.174;11.562;2023-08-06T02:31:09;2.80;;;2.80;;
27802;SDS011;15182;48.174;11.562;2023-08-06T02:33:37;2.70;;;2.70;;
27802;SDS011;15182;48.174;11.562;2023-08-06T02:36:05;2.70;;;2.70;;
27802;SDS011;15182;48.174;11.562;2023-08-06T02:38:33;2.17;;;2.17;;
27802;SDS011;15182;48.174;11.562;2023-08-06T02:41:02;2.93;;;2.93;;
27802;SDS011;15182;48.174;11.562;2023-08-06T02:43:30;2.33;;;2.33;;
27802;SDS011;15182;48.174;11.562;2023-08-06T02:46:00;2.50;;;2.50;;
27802;SDS011;15182;48.174;11.562;2023-08-06T02:48:28;2.57;;;2.47;;
27802;SDS011;15182;48.174;11.562;2023-08-06T02:50:59;2.63;;;2.57;;
27802;SDS011;15182;48.174;11.562;2023-08-06T02:53:29;2.47;;;2.38;;
27802;SDS011;15182;48.174;11.562;2023-08-06T02:56:00;2.50;;;2.40;;
27802;SDS011;15182;48.174;11.562;2023-08-06T02:58:37;2.47;;;2.40;;
27802;SDS011;15182;48.174;11.562;2023-08-06T03:01:15;2.65;;;2.60;;
27802;SDS011;15182;48.174;11.562;2023-08-06T03:03:52;2.90;;;2.70;;
27802;SDS011;15182;48.174;11.562;2023-08-06T03:06:26;2.58;;;2.58;;
27802;SDS011;15182;48.174;11.562;2023-08-06T03:08:57;2.35;;;2.25;;
27802;SDS011;15182;48.174;11.562;2023-08-06T03:11:25;2.60;;;2.60;;
27802;SDS011;15182;48.174;11.562;2023-08-06T03:13:58;2.70;;;2.70;;
27802;SDS011;15182;48.174;11.562;2023-08-06T03:16:28;2.30;;;2.30;;
27802;SDS011;15182;48.174;11.562;2023-08-06T03:18:56;2.50;;;2.50;;
27802;SDS011;15182;48.174;11.562;2023-08-06T03:21:24;2.70;;;2.70;;
27802;SDS011;15182;48.174;11.562;2023-08-06T03:23:52;2.27;;;2.27;;
27802;SDS011;15182;48.174;11.562;2023-08-06T03:26:23;2.47;;;2.47;;
27802;SDS011;15182;48.174;11.562;2023-08-06T03:28:51;2.13;;;2.13;;
27802;SDS011;15182;48.174;11.562;2023-08-06T03:31:19;2.30;;;2.20;;
27802;SDS011;15182;48.174;11.562;2023-08-06T03:33:49;2.30;;;2.30;;
27802;SDS011;15182;48.174;11.562;2023-08-06T03:36:22;2.40;;;2.40;;
27802;SDS011;15182;48.174;11.562;2023-08-06T03:38:51;2.23;;;2.23;;
27802;SDS011;15182;48.174;11.562;2023-08-06T03:41:19;2.10;;;2.10;;
27802;SDS011;15182;48.174;11.562;2023-08-06T03:43:47;2.53;;;2.37;;
27802;SDS011;15182;48.174;11.562;2023-08-06T03:46:21;2.10;;;2.10;;
27802;SDS011;15182;48.174;11.562;2023-08-06T03:48:51;2.17;;;2.07;;
27802;SDS011;15182;48.174;11.562;2023-08-06T03:51:19;2.37;;;2.33;;
27802;SDS011;15182;48.174;11.562;2023-08-06T03:53:48;2.10;;;2.10;;
27802;SDS011;15182;48.174;11.562;2023-08-06T03:56:16;2.43;;;2.33;;
27802;SDS011;15182;48.174;11.562;2023-08-06T03:58:43;2.03;;;2.03;;
27802;SDS011;15182;48.174;11.562;2023-08-06T04:01:11;1.90;;;1.80;;
27802;SDS011;15182;48.174;11.562;2023-08-06T04:03:43;2.37;;;2.30;;
27802;SDS011;15182;48.174;11.562;2023-08-06T04:06:13;2.23;;;2.23;;
27802;SDS011;15182;48.174;11.562;2023-08-06T04:08:41;2.87;;;2.20;;
27802;SDS011;15182;48.174;11.562;2023-08-06T04:11:09;1.87;;;1.87;;
27802;SDS011;15182;48.174;11.562;2023-08-06T04:13:36;2.07;;;2.07;;
27802;SDS011;15182;48.174;11.562;2023-08-06T04:16:04;2.20;;;2.00;;
27802;SDS011;15182;48.174;11.562;2023-08-06T04:18:32;2.30;;;2.30;;
27802;SDS011;15182;48.174;11.562;2023-08-06T04:21:01;2.13;;;2.13;;
27802;SDS011;15182;48.174;11.562;2023-08-06T04:23:30;2.30;;;2.23;;
27802;SDS011;15182;48.174;11.562;2023-08-06T04:26:02;2.10;;;2.00;;
27802;SDS011;15182;48.174;11.562;2023-08-06T04:28:33;2.23;;;2.23;;
27802;SDS011;15182;48.174;11.562;2023-08-06T04:31:01;2.20;;;2.10;;
27802;SDS011;15182;48.174;11.562;2023-08-06T04:33:31;2.23;;;2.17;;
27802;SDS011;15182;48.174;11.562;2023-08-06T04:36:04;2.40;;;2.30;;
27802;SDS011;15182;48.174;11.562;2023-08-06T04:38:34;2.27;;;2.23;;
27802;SDS011;15182;48.174;11.562;2023-08-06T04:41:02;2.00;;;2.00;;
27802;SDS011;15182;48.174;11.562;2023-08-06T04:43:30;2.10;;;2.00;;
27802;SDS011;15182;48.174;11.562;2023-08-06T04:45:58;1.93;;;1.93;;
27802;SDS011;15182;48.174;11.562;2023-08-06T04:48:26;2.43;;;2.17;;
27802;SDS011;15182;48.174;11.562;2023-08-06T04:50:54;2.17;;;2.07;;
27802;SDS011;15182;48.174;11.562;2023-08-06T04:53:21;2.67;;;2.57;;
27802;SDS011;15182;48.174;11.562;2023-08-06T04:55:51;2.43;;;2.27;;
27802;SDS011;15182;48.174;11.562;2023-08-06T04:58:19;2.53;;;2.53;;
27802;SDS011;15182;48.174;11.562;2023-08-06T05:00:46;2.47;;;2.37;;
27802;SDS011;15182;48.174;11.562;2023-08-06T05:03:14;2.30;;;2.20;;
27802;SDS011;15182;48.174;11.562;2023-08-06T05:05:42;2.40;;;2.20;;
27802;SDS011;15182;48.174;11.562;2023-08-06T05:08:13;2.13;;;2.13;;
27802;SDS011;15182;48.174;11.562;2023-08-06T05:10:43;2.17;;;2.07;;
27802;SDS011;15182;48.174;11.562;2023-08-06T05:13:12;1.97;;;1.97;;
27802;SDS011;15182;48.174;11.562;2023-08-06T05:15:40;2.13;;;2.13;;
27802;SDS011;15182;48.174;11.562;2023-08-06T05:18:11;2.07;;;1.97;;
27802;SDS011;15182;48.174;11.562;2023-08-06T05:20:39;2.23;;;2.23;;
27802;SDS011;15182;48.174;11.562;2023-08-06T05:23:08;2.30;;;2.20;;
27802;SDS011;15182;48.174;11.562;2023-08-06T05:25:36;1.90;;;1.90;;
27802;SDS011;15182;48.174;11.562;2023-08-06T05:28:04;2.30;;;2.30;;
27802;SDS011;15182;48.174;11.562;2023-08-06T05:30:33;3.27;;;2.37;;
27802;SDS011;15182;48.174;11.562;2023-08-06T05:33:03;2.40;;;2.30;;
27802;SDS011;15182;48.174;11.562;2023-08-06T05:35:30;2.43;;;2.43;;
27802;SDS011;15182;48.174;11.562;2023-08-06T05:37:58;1.93;;;1.93;;
27802;SDS011;15182;48.174;11.562;2023-08-06T05:40:26;1.97;;;1.97;;
27802;SDS011;15182;48.174;11.562;2023-08-06T05:42:54;2.00;;;2.00;;
27802;SDS011;15182;48.174;11.562;2023-08-06T05:45:21;2.73;;;2.30;;
27802;SDS011;15182;48.174;11.562;2023-08-06T05:47:51;2.23;;;2.20;;
27802;SDS011;15182;48.174;11.562;2023-08-06T05:50:19;2.83;;;2.20;;
27802;SDS011;15182;48.174;11.562;2023-08-06T05:52:47;2.43;;;2.40;;
27802;SDS011;15182;48.174;11.562;2023-08-06T05:55:15;2.33;;;2.23;;
27802;SDS011;15182;48.174;11.562;2023-08-06T05:57:43;2.03;;;2.03;;
27802;SDS011;15182;48.174;11.562;2023-08-06T06:00:11;2.27;;;2.27;;
27802;SDS011;15182;48.174;11.562;2023-08-06T06:02:39;1.83;;;1.83;;
27802;SDS011;15182;48.174;11.562;2023-08-06T06:05:08;2.10;;;2.10;;
27802;SDS011;15182;48.174;11.562;2023-08-06T06:07:36;2.20;;;2.20;;
27802;SDS011;15182;48.174;11.562;2023-08-06T06:10:04;1.97;;;1.97;;
27802;SDS011;15182;48.174;11.562;2023-08-06T06:12:33;2.27;;;2.07;;
27802;SDS011;15182;48.174;11.562;2023-08-06T06:15:01;1.90;;;1.90;;
27802;SDS011;15182;48.174;11.562;2023-08-06T06:17:29;2.13;;;2.13;;
27802;SDS011;15182;48.174;11.562;2023-08-06T06:19:57;2.07;;;2.03;;
27802;SDS011;15182;48.174;11.562;2023-08-06T06:22:26;2.50;;;2.50;;
27802;SDS011;15182;48.174;11.562;2023-08-06T06:24:54;2.17;;;2.17;;
27802;SDS011;15182;48.174;11.562;2023-08-06T06:27:22;2.00;;;2.00;;
27802;SDS011;15182;48.174;11.562;2023-08-06T06:29:50;2.13;;;2.03;;
27802;SDS011;15182;48.174;11.562;2023-08-06T06:32:18;2.23;;;2.23;;
27802;SDS011;15182;48.174;11.562;2023-08-06T06:34:46;1.90;;;1.90;;
27802;SDS011;15182;48.174;11.562;2023-08-06T06:37:14;1.90;;;1.90;;
27802;SDS011;15182;48.174;11.562;2023-08-06T06:39:43;2.10;;;2.10;;
27802;SDS011;15182;48.174;11.562;2023-08-06T06:42:11;2.40;;;2.30;;
27802;SDS011;15182;48.174;11.562;2023-08-06T06:44:44;2.13;;;2.13;;
27802;SDS011;15182;48.174;11.562;2023-08-06T06:47:11;2.00;;;1.90;;
27802;SDS011;15182;48.174;11.562;2023-08-06T06:49:39;2.10;;;2.10;;
27802;SDS011;15182;48.174;11.562;2023-08-06T06:52:07;1.83;;;1.83;;
27802;SDS011;15182;48.174;11.562;2023-08-06T06:54:35;4.33;;;1.80;;
27802;SDS011;15182;48.174;11.562;2023-08-06T06:57:04;2.20;;;2.00;;
27802;SDS011;15182;48.174;11.562;2023-08-06T06:59:32;2.57;;;2.27;;
27802;SDS011;15182;48.174;11.562;2023-08-06T07:02:00;1.60;;;1.60;;
27802;SDS011;15182;48.174;11.562;2023-08-06T07:04:28;2.20;;;2.20;;
27802;SDS011;15182;48.174;11.562;2023-08-06T07:06:56;1.73;;;1.73;;
27802;SDS011;15182;48.174;11.562;2023-08-06T07:09:23;1.80;;;1.80;;
27802;SDS011;15182;48.174;11.562;2023-08-06T07:11:52;1.63;;;1.63;;
27802;SDS011;15182;48.174;11.562;2023-08-06T07:14:21;1.50;;;1.50;;
27802;SDS011;15182;48.174;11.562;2023-08-06T07:16:49;1.60;;;1.60;;
27802;SDS011;15182;48.174;11.562;2023-08-06T07:19:17;1.70;;;1.60;;
27802;SDS011;15182;48.174;11.562;2023-08-06T07:21:45;1.52;;;1.50;;
27802;SDS011;15182;48.174;11.562;2023-08-06T07:24:12;2.05;;;1.48;;
27802;SDS011;15182;48.174;11.562;2023-08-06T07:26:40;1.40;;;1.40;;
27802;SDS011;15182;48.174;11.562;2023-08-06T07:29:08;2.58;;;1.60;;
27802;SDS011;15182;48.174;11.562;2023-08-06T07:31:37;1.35;;;1.35;;
27802;SDS011;15182;48.174;11.562;2023-08-06T07:34:05;1.35;;;1.35;;
27802;SDS011;15182;48.174;11.562;2023-08-06T07:36:33;1.50;;;1.50;;
27802;SDS011;15182;48.174;11.562;2023-08-06T07:39:00;1.42;;;1.42;;
27802;SDS011;15182;48.174;11.562;2023-08-06T07:41:30;1.20;;;1.20;;
27802;SDS011;15182;48.174;11.562;2023-08-06T07:44:05;1.35;;;1.35;;
27802;SDS011;15182;48.174;11.562;2023-08-06T07:46:33;1.40;;;1.40;;
27802;SDS011;15182;48.174;11.562;2023-08-06T07:49:02;1.65;;;1.60;;
27802;SDS011;15182;48.174;11.562;2023-08-06T07:51:29;1.50;;;1.50;;
27802;SDS011;15182;48.174;11.562;2023-08-06T07:53:57;2.15;;;1.35;;
27802;SDS011;15182;48.174;11.562;2023-08-06T07:56:25;1.50;;;1.50;;
27802;SDS011;15182;48.174;11.562;2023-08-06T07:58:53;1.52;;;1.52;;
27802;SDS011;15182;48.174;11.562;2023-08-06T08:01:20;1.55;;;1.55;;
27802;SDS011;15182;48.174;11.562;2023-08-06T08:03:48;1.60;;;1.60;;
27802;SDS011;15182;48.174;11.562;2023-08-06T08:06:17;1.40;;;1.40;;
27802;SDS011;15182;48.174;11.562;2023-08-06T08:08:45;1.58;;;1.50;;
27802;SDS011;15182;48.174;11.562;2023-08-06T08:11:13;1.50;;;1.50;;
27802;SDS011;15182;48.174;11.562;2023-08-06T08:13:41;1.40;;;1.40;;
27802;SDS011;15182;48.174;11.562;2023-08-06T08:16:09;1.40;;;1.40;;
27802;SDS011;15182;48.174;11.562;2023-08-06T08:18:37;1.50;;;1.48;;
27802;SDS011;15182;48.174;11.562;2023-08-06T08:21:05;1.23;;;1.23;;
27802;SDS011;15182;48.174;11.562;2023-08-06T08:23:34;1.85;;;1.52;;
27802;SDS011;15182;48.174;11.562;2023-08-06T08:26:02;1.45;;;1.45;;
27802;SDS011;15182;48.174;11.562;2023-08-06T08:28:30;1.60;;;1.50;;
27802;SDS011;15182;48.174;11.562;2023-08-06T08:30:57;1.63;;;1.60;;
27802;SDS011;15182;48.174;11.562;2023-08-06T08:33:25;1.40;;;1.40;;
27802;SDS011;15182;48.174;11.562;2023-08-06T08:35:53;1.38;;;1.38;;
27802;SDS011;15182;48.174;11.562;2023-08-06T08:38:21;1.30;;;1.30;;
27802;SDS011;15182;48.174;11.562;2023-08-06T08:40:51;1.20;;;1.20;;
27802;SDS011;15182;48.174;11.562;2023-08-06T08:43:20;1.50;;;1.50;;
27802;SDS011;15182;48.174;11.562;2023-08-06T08:45:49;1.13;;;1.13;;
27802;SDS011;15182;48.174;11.562;2023-08-06T08:48:18;1.20;;;1.20;;
27802;SDS011;15182;48.174;11.562;2023-08-06T08:50:47;1.10;;;1.10;;
27802;SDS011;15182;48.174;11.562;2023-08-06T08:53:16;1.52;;;1.20;;
27802;SDS011;15182;48.174;11.562;2023-08-06T08:55:46;1.13;;;1.13;;
27802;SDS011;15182;48.174;11.562;2023-08-06T08:58:17;1.25;;;1.15;;
27802;SDS011;15182;48.174;11.562;2023-08-06T09:00:45;1.00;;;1.00;;
27802;SDS011;15182;48.174;11.562;2023-08-06T09:03:14;1.10;;;1.10;;
27802;SDS011;15182;48.174;11.562;2023-08-06T09:05:44;1.27;;;1.20;;
27802;SDS011;15182;48.174;11.562;2023-08-06T09:08:14;1.42;;;1.10;;
27802;SDS011;15182;48.174;11.562;2023-08-06T09:10:45;1.13;;;1.13;;
27802;SDS011;15182;48.174;11.562;2023-08-06T09:13:18;2.17;;;1.08;;
27802;SDS011;15182;48.174;11.562;2023-08-06T09:15:47;1.00;;;1.00;;
27802;SDS011;15182;48.174;11.562;2023-08-06T09:18:24;1.00;;;1.00;;
27802;SDS011;15182;48.174;11.562;2023-08-06T09:20:53;1.27;;;1.27;;
27802;SDS011;15182;48.174;11.562;2023-08-06T09:23:22;3.40;;;0.98;;
27802;SDS011;15182;48.174;11.562;2023-08-06T09:25:56;1.10;;;1.10;;
27802;SDS011;15182;48.174;11.562;2023-08-06T09:28:26;1.65;;;1.15;;
27802;SDS011;15182;48.174;11.562;2023-08-06T09:31:05;0.90;;;0.90;;
27802;SDS011;15182;48.174;11.562;2023-08-06T09:33:33;1.17;;;1.10;;
27802;SDS011;15182;48.174;11.562;2023-08-06T09:36:07;1.00;;;1.00;;
27802;SDS011;15182;48.174;11.562;2023-08-06T09:38:39;0.98;;;0.98;;
27802;SDS011;15182;48.174;11.562;2023-08-06T09:41:07;1.30;;;1.30;;
27802;SDS011;15182;48.174;11.562;2023-08-06T09:43:43;0.83;;;0.83;;
27802;SDS011;15182;48.174;11.562;2023-08-06T09:46:11;1.08;;;1.08;;
27802;SDS011;15182;48.174;11.562;2023-08-06T09:48:44;1.10;;;1.10;;
27802;SDS011;15182;48.174;11.562;2023-08-06T09:51:13;1.10;;;1.10;;
27802;SDS011;15182;48.174;11.562;2023-08-06T09:53:41;0.98;;;0.93;;
27802;SDS011;15182;48.174;11.562;2023-08-06T09:56:09;1.30;;;1.08;;
27802;SDS011;15182;48.174;11.562;2023-08-06T09:58:38;1.00;;;1.00;;
27802;SDS011;15182;48.174;11.562;2023-08-06T10:01:08;1.27;;;1.17;;
27802;SDS011;15182;48.174;11.562;2023-08-06T10:03:37;0.82;;;0.82;;
27802;SDS011;15182;48.174;11.562;2023-08-06T10:06:06;1.05;;;1.05;;
27802;SDS011;15182;48.174;11.562;2023-08-06T10:08:34;2.10;;;1.03;;
27802;SDS011;15182;48.174;11.562;2023-08-06T10:11:02;1.13;;;1.02;;
27802;SDS011;15182;48.174;11.562;2023-08-06T10:13:31;0.93;;;0.93;;
27802;SDS011;15182;48.174;11.562;2023-08-06T10:16:01;1.00;;;1.00;;
27802;SDS011;15182;48.174;11.562;2023-08-06T10:18:32;1.55;;;0.90;;
27802;SDS011;15182;48.174;11.562;2023-08-06T10:21:00;1.27;;;1.27;;
27802;SDS011;15182;48.174;11.562;2023-08-06T10:23:35;0.90;;;0.90;;
27802;SDS011;15182;48.174;11.562;2023-08-06T10:26:04;0.90;;;0.90;;
27802;SDS011;15182;48.174;11.562;2023-08-06T10:28:35;0.80;;;0.80;;
27802;SDS011;15182;48.174;11.562;2023-08-06T10:31:05;1.05;;;1.05;;
27802;SDS011;15182;48.174;11.562;2023-08-06T10:33:44;0.77;;;0.77;;
27802;SDS011;15182;48.174;11.562;2023-08-06T10:36:13;1.10;;;1.10;;
27802;SDS011;15182;48.174;11.562;2023-08-06T10:38:45;0.90;;;0.90;;
27802;SDS011;15182;48.174;11.562;2023-08-06T10:41:22;1.15;;;1.15;;
27802;SDS011;15182;48.174;11.562;2023-08-06T10:44:03;0.98;;;0.98;;
27802;SDS011;15182;48.174;11.562;2023-08-06T10:46:34;1.00;;;1.00;;
27802;SDS011;15182;48.174;11.562;2023-08-06T10:49:04;0.80;;;0.80;;
27802;SDS011;15182;48.174;11.562;2023-08-06T10:51:33;0.90;;;0.90;;
27802;SDS011;15182;48.174;11.562;2023-08-06T10:54:01;0.90;;;0.90;;
27802;SDS011;15182;48.174;11.562;2023-08-06T10:56:29;0.70;;;0.70;;
27802;SDS011;15182;48.174;11.562;2023-08-06T10:58:57;2.10;;;1.23;;
27802;SDS011;15182;48.174;11.562;2023-08-06T11:01:28;0.80;;;0.80;;
27802;SDS011;15182;48.174;11.562;2023-08-06T11:04:00;0.80;;;0.80;;
27802;SDS011;15182;48.174;11.562;2023-08-06T11:06:32;0.80;;;0.80;;
27802;SDS011;15182;48.174;11.562;2023-08-06T11:09:01;0.85;;;0.85;;
27802;SDS011;15182;48.174;11.562;2023-08-06T11:11:29;0.90;;;0.90;;
27802;SDS011;15182;48.174;11.562;2023-08-06T11:13:56;0.98;;;0.98;;
27802;SDS011;15182;48.174;11.562;2023-08-06T11:16:24;0.93;;;0.93;;
27802;SDS011;15182;48.174;11.562;2023-08-06T11:18:52;0.80;;;0.80;;
27802;SDS011;15182;48.174;11.562;2023-08-06T11:21:22;0.93;;;0.93;;
27802;SDS011;15182;48.174;11.562;2023-08-06T11:23:52;0.82;;;0.82;;
27802;SDS011;15182;48.174;11.562;2023-08-06T11:26:20;0.77;;;0.77;;
27802;SDS011;15182;48.174;11.562;2023-08-06T11:28:49;0.80;;;0.80;;
27802;SDS011;15182;48.174;11.562;2023-08-06T11:31:18;1.50;;;1.08;;
27802;SDS011;15182;48.174;11.562;2023-08-06T11:33:46;0.90;;;0.90;;
27802;SDS011;15182;48.174;11.562;2023-08-06T11:36:14;0.68;;;0.68;;
27802;SDS011;15182;48.174;11.562;2023-08-06T11:38:42;0.80;;;0.80;;
27802;SDS011;15182;48.174;11.562;2023-08-06T11:41:11;0.90;;;0.90;;
27802;SDS011;15182;48.174;11.562;2023-08-06T11:43:39;2.28;;;1.02;;
27802;SDS011;15182;48.174;11.562;2023-08-06T11:46:07;0.80;;;0.80;;
27802;SDS011;15182;48.174;11.562;2023-08-06T11:48:50;0.80;;;0.80;;
27802;SDS011;15182;48.174;11.562;2023-08-06T11:51:22;0.90;;;0.90;;
27802;SDS011;15182;48.174;11.562;2023-08-06T11:53:53;1.40;;;1.00;;
27802;SDS011;15182;48.174;11.562;2023-08-06T11:56:23;1.02;;;1.02;;
27802;SDS011;15182;48.174;11.562;2023-08-06T11:58:52;0.80;;;0.80;;
27802;SDS011;15182;48.174;11.562;2023-08-06T12:01:21;0.90;;;0.90;;
27802;SDS011;15182;48.174;11.562;2023-08-06T12:03:49;0.90;;;0.90;;
27802;SDS011;15182;48.174;11.562;2023-08-06T12:06:16;1.50;;;0.80;;
27802;SDS011;15182;48.174;11.562;2023-08-06T12:08:44;0.80;;;0.80;;
27802;SDS011;15182;48.174;11.562;2023-08-06T12:11:12;0.80;;;0.80;;
27802;SDS011;15182;48.174;11.562;2023-08-06T12:13:41;0.80;;;0.80;;
27802;SDS011;15182;48.174;11.562;2023-08-06T12:16:09;0.90;;;0.90;;
27802;SDS011;15182;48.174;11.562;2023-08-06T12:18:37;0.90;;;0.90;;
27802;SDS011;15182;48.174;11.562;2023-08-06T12:21:05;0.90;;;0.90;;
27802;SDS011;15182;48.174;11.562;2023-08-06T12:23:32;0.98;;;0.98;;
27802;SDS011;15182;48.174;11.562;2023-08-06T12:26:00;0.82;;;0.82;;
27802;SDS011;15182;48.174;11.562;2023-08-06T12:28:28;0.90;;;0.90;;
27802;SDS011;15182;48.174;11.562;2023-08-06T12:30:57;0.88;;;0.88;;
27802;SDS011;15182;48.174;11.562;2023-08-06T12:33:25;3.75;;;1.10;;
27802;SDS011;15182;48.174;11.562;2023-08-06T12:35:53;0.82;;;0.82;;
27802;SDS011;15182;48.174;11.562;2023-08-06T12:38:21;0.90;;;0.90;;
27802;SDS011;15182;48.174;11.562;2023-08-06T12:40:48;0.90;;;0.90;;
27802;SDS011;15182;48.174;11.562;2023-08-06T12:43:16;0.75;;;0.75;;
27802;SDS011;15182;48.174;11.562;2023-08-06T12:45:44;0.68;;;0.68;;
27802;SDS011;15182;48.174;11.562;2023-08-06T12:48:13;0.80;;;0.80;;
27802;SDS011;15182;48.174;11.562;2023-08-06T12:50:41;1.00;;;1.00;;
27802;SDS011;15182;48.174;11.562;2023-08-06T12:53:09;0.70;;;0.70;;
27802;SDS011;15182;48.174;11.562;2023-08-06T12:55:36;0.95;;;0.95;;
27802;SDS011;15182;48.174;11.562;2023-08-06T12:58:06;1.20;;;1.13;;
27802;SDS011;15182;48.174;11.562;2023-08-06T13:00:34;0.85;;;0.85;;
27802;SDS011;15182;48.174;11.562;2023-08-06T13:03:02;0.90;;;0.90;;
27802;SDS011;15182;48.174;11.562;2023-08-06T13:05:31;0.95;;;0.95;;
27802;SDS011;15182;48.174;11.562;2023-08-06T13:07:59;0.90;;;0.90;;
27802;SDS011;15182;48.174;11.562;2023-08-06T13:10:27;1.45;;;0.90;;
27802;SDS011;15182;48.174;11.562;2023-08-06T13:12:55;0.90;;;0.90;;
27802;SDS011;15182;48.174;11.562;2023-08-06T13:15:22;1.05;;;1.05;;
27802;SDS011;15182;48.174;11.562;2023-08-06T13:17:50;0.90;;;0.90;;
27802;SDS011;15182;48.174;11.562;2023-08-06T13:20:18;0.80;;;0.80;;
27802;SDS011;15182;48.174;11.562;2023-08-06T13:22:48;0.80;;;0.80;;
27802;SDS011;15182;48.174;11.562;2023-08-06T13:25:18;0.70;;;0.70;;
27802;SDS011;15182;48.174;11.562;2023-08-06T13:27:46;0.90;;;0.90;;
27802;SDS011;15182;48.174;11.562;2023-08-06T13:30:14;0.70;;;0.70;;
27802;SDS011;15182;48.174;11.562;2023-08-06T13:32:43;0.85;;;0.85;;
27802;SDS011;15182;48.174;11.562;2023-08-06T13:35:11;0.90;;;0.90;;
27802;SDS011;15182;48.174;11.562;2023-08-06T13:37:39;1.10;;;1.10;;
27802;SDS011;15182;48.174;11.562;2023-08-06T13:40:08;1.00;;;1.00;;
27802;SDS011;15182;48.174;11.562;2023-08-06T13:42:37;0.80;;;0.80;;
27802;SDS011;15182;48.174;11.562;2023-08-06T13:45:05;1.75;;;0.70;;
27802;SDS011;15182;48.174;11.562;2023-08-06T13:47:33;0.80;;;0.80;;
27802;SDS011;15182;48.174;11.562;2023-08-06T13:50:01;1.08;;;1.08;;
27802;SDS011;15182;48.174;11.562;2023-08-06T13:52:29;1.15;;;1.15;;
27802;SDS011;15182;48.174;11.562;2023-08-06T13:54:57;0.80;;;0.80;;
27802;SDS011;15182;48.174;11.562;2023-08-06T13:57:26;0.90;;;0.90;;
27802;SDS011;15182;48.174;11.562;2023-08-06T13:59:54;0.88;;;0.88;;
27802;SDS011;15182;48.174;11.562;2023-08-06T14:02:22;0.90;;;0.90;;
27802;SDS011;15182;48.174;11.562;2023-08-06T14:04:51;1.13;;;0.90;;
27802;SDS011;15182;48.174;11.562;2023-08-06T14:07:19;0.90;;;0.90;;
27802;SDS011;15182;48.174;11.562;2023-08-06T14:09:47;0.80;;;0.80;;
27802;SDS011;15182;48.174;11.562;2023-08-06T14:12:15;1.00;;;1.00;;
27802;SDS011;15182;48.174;11.562;2023-08-06T14:14:44;1.00;;;1.00;;
27802;SDS011;15182;48.174;11.562;2023-08-06T14:17:12;0.90;;;0.90;;
27802;SDS011;15182;48.174;11.562;2023-08-06T14:19:41;1.10;;;1.10;;
27802;SDS011;15182;48.174;11.562;2023-08-06T14:22:09;1.08;;;1.08;;
27802;SDS011;15182;48.174;11.562;2023-08-06T14:24:37;0.82;;;0.82;;
27802;SDS011;15182;48.174;11.562;2023-08-06T14:27:05;1.00;;;1.00;;
27802;SDS011;15182;48.174;11.562;2023-08-06T14:29:33;0.90;;;0.90;;
27802;SDS011;15182;48.174;11.562;2023-08-06T14:32:02;0.82;;;0.82;;
27802;SDS011;15182;48.174;11.562;2023-08-06T14:34:30;1.00;;;1.00;;
27802;SDS011;15182;48.174;11.562;2023-08-06T14:36:58;0.90;;;0.90;;
27802;SDS011;15182;48.174;11.562;2023-08-06T14:39:26;0.95;;;0.95;;
27802;SDS011;15182;48.174;11.562;2023-08-06T14:41:54;1.13;;;1.13;;
27802;SDS011;15182;48.174;11.562;2023-08-06T14:44:21;1.30;;;1.20;;